createdAt,value
2019-04-26T00:00:14.204Z,4.93
2019-04-26T00:02:55.848Z,4.60
2019-04-26T00:05:34.305Z,5.10
2019-04-26T00:07:55.541Z,4.97
2019-04-26T00:10:43.719Z,4.50
2019-04-26T00:13:34.514Z,4.40
2019-04-26T00:16:41.128Z,4.50
2019-04-26T00:19:09.788Z,5.23
2019-04-26T00:21:39.758Z,4.43
2019-04-26T00:24:08.398Z,4.67
2019-04-26T00:26:36.828Z,4.03
2019-04-26T00:29:05.258Z,4.50
2019-04-26T00:31:33.910Z,5.33
2019-04-26T00:34:02.614Z,4.13
2019-04-26T00:36:31.141Z,4.37
2019-04-26T00:38:59.705Z,4.53
2019-04-26T00:41:28.894Z,4.00
2019-04-26T00:43:58.106Z,4.70
2019-04-26T00:46:29.056Z,5.27
2019-04-26T00:49:02.560Z,4.03
2019-04-26T00:51:32.781Z,4.30
2019-04-26T00:54:01.887Z,4.67
2019-04-26T00:56:31.211Z,4.30
2019-04-26T00:59:00.528Z,4.50
2019-04-26T01:01:31.363Z,5.07
2019-04-26T01:03:59.996Z,4.30
2019-04-26T01:06:30.866Z,4.17
2019-04-26T01:08:59.546Z,4.70
2019-04-26T01:11:28.343Z,4.60
2019-04-26T01:13:56.830Z,4.47
2019-04-26T01:16:26.388Z,4.60
2019-04-26T01:18:56.863Z,4.30
2019-04-26T01:21:33.260Z,5.03
2019-04-26T01:24:04.331Z,5.27
2019-04-26T01:26:35.426Z,4.67
2019-04-26T01:29:10.216Z,5.10
2019-04-26T01:31:59.570Z,4.90
2019-04-26T01:34:29.649Z,4.47
2019-04-26T01:37:01.073Z,4.67
2019-04-26T01:39:30.503Z,4.30
2019-04-26T01:42:24.979Z,4.80
2019-04-26T01:45:06.541Z,3.77
2019-04-26T01:47:35.511Z,4.50
2019-04-26T01:50:05.393Z,4.70
2019-04-26T01:52:33.717Z,4.57
2019-04-26T01:55:03.045Z,5.00
2019-04-26T01:57:32.153Z,4.70
2019-04-26T02:00:12.121Z,4.77
2019-04-26T02:02:58.419Z,4.97
2019-04-26T02:05:27.914Z,4.77
2019-04-26T02:07:57.356Z,4.60
2019-04-26T02:10:26.687Z,4.50
2019-04-26T02:12:56.738Z,4.70
2019-04-26T02:15:31.231Z,4.83
2019-04-26T02:18:00.591Z,4.90
2019-04-26T02:21:02.313Z,4.23
2019-04-26T02:23:39.448Z,4.67
2019-04-26T02:26:26.892Z,4.07
2019-04-26T02:28:55.411Z,4.57
2019-04-26T02:31:26.779Z,3.90
2019-04-26T02:33:55.801Z,3.83
2019-04-26T02:36:27.503Z,3.83
2019-04-26T02:39:00.944Z,3.53
2019-04-26T02:41:31.616Z,4.17
2019-04-26T02:44:06.515Z,4.37
2019-04-26T02:46:47.561Z,3.83
2019-04-26T02:49:29.293Z,4.17
2019-04-26T02:52:24.754Z,4.00
2019-04-26T02:55:07.625Z,3.63
2019-04-26T02:57:54.869Z,3.80
2019-04-26T03:00:24.486Z,4.23
2019-04-26T03:03:01.166Z,3.87
2019-04-26T03:05:35.751Z,4.00
2019-04-26T03:08:26.349Z,4.90
2019-04-26T03:11:10.004Z,4.60
2019-04-26T03:14:02.874Z,5.00
2019-04-26T03:17:02.920Z,4.87
2019-04-26T03:19:59.530Z,4.23
2019-04-26T03:23:45.540Z,4.13
2019-04-26T03:26:37.457Z,4.30
2019-04-26T03:29:41.956Z,4.30
2019-04-26T03:33:07.235Z,4.40
2019-04-26T03:36:16.012Z,4.30
2019-04-26T03:39:19.454Z,4.20
2019-04-26T03:42:54.836Z,4.30
2019-04-26T03:45:55.632Z,4.17
2019-04-26T03:49:07.473Z,4.03
2019-04-26T03:52:37.936Z,3.83
2019-04-26T03:55:47.798Z,4.13
2019-04-26T03:58:25.855Z,3.80
2019-04-26T04:01:00.359Z,4.07
2019-04-26T04:04:07.939Z,4.03
2019-04-26T04:07:03.380Z,4.60
2019-04-26T04:09:25.624Z,4.50
2019-04-26T04:12:11.719Z,4.53
2019-04-26T04:15:08.307Z,4.07
2019-04-26T04:17:51.706Z,4.27
2019-04-26T04:21:32.668Z,4.40
2019-04-26T04:24:11.041Z,3.93
2019-04-26T04:27:27.061Z,4.87
2019-04-26T04:30:18.978Z,4.87
2019-04-26T04:33:52.600Z,4.50
2019-04-26T04:36:32.722Z,4.33
2019-04-26T04:39:38.561Z,4.73
2019-04-26T04:42:52.298Z,4.27
2019-04-26T04:46:01.179Z,4.10
2019-04-26T04:49:22.142Z,3.90
2019-04-26T04:52:31.481Z,4.10
2019-04-26T04:55:20.066Z,4.10
2019-04-26T04:58:14.064Z,3.80
2019-04-26T05:02:05.188Z,4.13
2019-04-26T05:05:06.599Z,5.20
2019-04-26T05:08:06.631Z,4.07
2019-04-26T05:10:47.640Z,5.33
2019-04-26T05:13:59.179Z,4.30
2019-04-26T05:17:08.966Z,3.97
2019-04-26T05:20:46.937Z,4.37
2019-04-26T05:24:04.732Z,5.20
2019-04-26T05:27:57.186Z,4.53
2019-04-26T05:31:17.407Z,4.47
2019-04-26T05:34:38.014Z,4.80
2019-04-26T05:38:17.801Z,3.77
2019-04-26T05:41:31.926Z,4.90
2019-04-26T05:44:38.018Z,4.40
2019-04-26T05:48:03.248Z,4.27
2019-04-26T05:51:30.167Z,4.40
2019-04-26T05:55:04.181Z,4.43
2019-04-26T05:58:16.948Z,4.77
2019-04-26T06:01:54.801Z,4.23
2019-04-26T06:05:24.296Z,4.83
2019-04-26T06:08:46.359Z,5.23
2019-04-26T06:11:30.442Z,5.27
2019-04-26T06:14:39.681Z,5.27
2019-04-26T06:17:49.155Z,5.20
2019-04-26T06:21:16.600Z,5.97
2019-04-26T06:24:37.061Z,5.47
2019-04-26T06:27:47.314Z,7.10
2019-04-26T06:30:24.124Z,6.27
2019-04-26T06:33:26.920Z,6.87
2019-04-26T06:36:01.764Z,7.17
2019-04-26T06:39:24.444Z,6.80
2019-04-26T06:42:48.230Z,6.97
2019-04-26T06:46:29.502Z,8.23
2019-04-26T06:49:43.194Z,7.20
2019-04-26T06:52:18.131Z,7.37
2019-04-26T06:55:17.429Z,7.80
2019-04-26T06:58:57.890Z,9.20
2019-04-26T07:02:09.928Z,8.27
2019-04-26T07:05:15.493Z,8.40
2019-04-26T07:09:00.596Z,7.97
2019-04-26T07:12:41.319Z,9.10
2019-04-26T07:16:19.731Z,8.93
2019-04-26T07:19:55.111Z,8.03
2019-04-26T07:23:18.582Z,9.07
2019-04-26T07:27:13.170Z,8.80
2019-04-26T07:31:13.518Z,7.93
2019-04-26T07:34:31.801Z,9.60
2019-04-26T07:38:11.462Z,9.40
2019-04-26T07:41:23.870Z,8.87
2019-04-26T07:44:37.640Z,8.83
2019-04-26T07:48:18.017Z,8.33
2019-04-26T07:51:47.890Z,8.43
2019-04-26T07:55:28.468Z,8.37
2019-04-26T07:58:59.026Z,9.43
2019-04-26T08:02:06.667Z,9.70
2019-04-26T08:04:43.403Z,8.50
2019-04-26T08:07:21.814Z,8.43
2019-04-26T08:10:17.034Z,9.33
2019-04-26T08:12:56.819Z,8.27
2019-04-26T08:15:45.611Z,6.17
2019-04-26T08:18:32.976Z,5.20
2019-04-26T08:21:18.439Z,6.03
2019-04-26T08:24:18.999Z,5.63
2019-04-26T08:27:23.121Z,4.97
2019-04-26T08:29:56.706Z,4.00
2019-04-26T08:32:33.240Z,4.37
2019-04-26T08:35:28.556Z,4.37
2019-04-26T08:38:07.946Z,3.93
2019-04-26T08:40:36.920Z,3.97
2019-04-26T08:43:30.798Z,3.70
2019-04-26T08:46:24.368Z,4.33
2019-04-26T08:49:06.432Z,4.17
2019-04-26T08:51:40.787Z,3.93
2019-04-26T08:54:21.368Z,4.13
2019-04-26T08:57:04.018Z,4.00
2019-04-26T08:59:46.167Z,3.73
2019-04-26T09:02:31.648Z,4.07
2019-04-26T09:05:20.716Z,3.67
2019-04-26T09:07:57.592Z,3.70
2019-04-26T09:10:30.919Z,3.37
2019-04-26T09:13:03.143Z,2.60
2019-04-26T09:16:10.068Z,3.50
2019-04-26T09:18:43.676Z,3.70
2019-04-26T09:21:09.616Z,4.13
2019-04-26T09:23:56.395Z,4.27
2019-04-26T09:26:34.816Z,3.83
2019-04-26T09:29:21.735Z,3.83
2019-04-26T09:31:54.457Z,4.40
2019-04-26T09:34:23.079Z,4.27
2019-04-26T09:36:51.711Z,4.07
2019-04-26T09:39:20.173Z,4.40
2019-04-26T09:41:48.774Z,3.97
2019-04-26T09:44:32.611Z,4.37
2019-04-26T09:47:32.548Z,4.83
2019-04-26T09:50:20.896Z,4.60
2019-04-26T09:52:50.627Z,4.63
2019-04-26T09:55:19.131Z,4.70
2019-04-26T09:57:48.714Z,4.97
2019-04-26T10:00:23.716Z,4.90
2019-04-26T10:02:52.223Z,5.17
2019-04-26T10:05:22.175Z,4.77
2019-04-26T10:07:51.528Z,4.83
2019-04-26T10:10:22.950Z,4.50
2019-04-26T10:13:15.976Z,4.30
2019-04-26T10:16:02.912Z,3.37
2019-04-26T10:18:33.588Z,3.43
2019-04-26T10:21:02.079Z,4.00
2019-04-26T10:23:31.629Z,3.77
2019-04-26T10:26:01.138Z,3.50
2019-04-26T10:28:29.704Z,3.70
2019-04-26T10:30:58.591Z,3.87
2019-04-26T10:33:27.281Z,3.53
2019-04-26T10:35:56.804Z,3.37
2019-04-26T10:38:26.369Z,3.37
2019-04-26T10:40:54.830Z,3.83
2019-04-26T10:43:26.097Z,4.07
2019-04-26T10:45:55.062Z,4.07
2019-04-26T10:48:23.726Z,4.20
2019-04-26T10:50:52.542Z,4.40
2019-04-26T10:53:38.483Z,4.33
2019-04-26T10:56:35.786Z,5.03
2019-04-26T10:59:24.213Z,4.70
2019-04-26T11:01:52.793Z,4.73
2019-04-26T11:04:21.426Z,5.67
2019-04-26T11:06:50.060Z,4.77
2019-04-26T11:09:18.850Z,4.67
2019-04-26T11:11:47.471Z,4.57
2019-04-26T11:14:18.453Z,3.93
2019-04-26T11:16:47.388Z,3.93
2019-04-26T11:19:17.475Z,4.00
2019-04-26T11:21:46.646Z,3.47
2019-04-26T11:24:19.547Z,3.17
2019-04-26T11:26:47.132Z,2.80
2019-04-26T11:29:15.505Z,2.90
2019-04-26T11:31:44.289Z,2.30
2019-04-26T11:34:12.946Z,2.40
2019-04-26T11:36:42.961Z,3.10
2019-04-26T11:39:14.235Z,3.10
2019-04-26T11:41:44.920Z,2.97
2019-04-26T11:44:14.677Z,3.00
2019-04-26T11:46:45.758Z,3.50
2019-04-26T11:49:14.611Z,4.20
2019-04-26T11:51:43.170Z,3.67
2019-04-26T11:54:12.132Z,3.80
2019-04-26T11:56:41.084Z,3.37
2019-04-26T11:59:11.007Z,3.40
2019-04-26T12:01:40.491Z,2.90
2019-04-26T12:04:27.181Z,2.80
2019-04-26T12:07:08.404Z,2.50
2019-04-26T12:09:40.935Z,2.10
2019-04-26T12:12:13.083Z,2.40
2019-04-26T12:14:41.942Z,2.57
2019-04-26T12:17:14.269Z,2.20
2019-04-26T12:19:44.413Z,2.10
2019-04-26T12:22:13.684Z,2.50
2019-04-26T12:24:42.152Z,2.30
2019-04-26T12:27:10.919Z,2.20
2019-04-26T12:29:44.250Z,2.10
2019-04-26T12:32:13.407Z,2.50
2019-04-26T12:34:43.031Z,2.33
2019-04-26T12:37:19.804Z,2.10
2019-04-26T12:39:44.131Z,2.03
2019-04-26T12:42:13.851Z,1.90
2019-04-26T12:45:03.676Z,2.37
2019-04-26T12:47:42.924Z,2.20
2019-04-26T12:50:12.093Z,1.90
2019-04-26T12:52:41.859Z,2.60
2019-04-26T12:55:13.848Z,2.47
2019-04-26T12:57:44.984Z,2.13
2019-04-26T13:00:16.676Z,1.97
2019-04-26T13:02:45.144Z,2.07
2019-04-26T13:05:14.603Z,1.80
2019-04-26T13:07:50.376Z,1.90
2019-04-26T13:11:52.859Z,2.23
2019-04-26T13:15:13.246Z,2.00
2019-04-26T13:18:28.446Z,5.97
2019-04-26T13:21:22.999Z,1.87
2019-04-26T13:24:54.138Z,2.30
2019-04-26T13:28:20.173Z,2.10
2019-04-26T13:31:45.148Z,2.10
2019-04-26T13:34:54.166Z,2.00
2019-04-26T13:38:24.493Z,2.17
2019-04-26T13:42:01.481Z,2.40
2019-04-26T13:45:25.026Z,2.67
2019-04-26T13:49:04.207Z,2.47
2019-04-26T13:52:01.538Z,2.40
2019-04-26T13:55:25.396Z,2.80
2019-04-26T13:58:20.964Z,2.37
2019-04-26T14:01:06.903Z,2.50
2019-04-26T14:07:42.975Z,2.43
2019-04-26T14:11:05.840Z,2.70
2019-04-26T14:14:17.686Z,2.90
2019-04-26T14:17:32.632Z,2.80
2019-04-26T14:21:04.613Z,2.90
2019-04-26T14:27:50.050Z,2.63
2019-04-26T14:31:03.393Z,2.33
2019-04-26T14:34:41.944Z,2.33
2019-04-26T14:37:45.330Z,2.73
2019-04-26T14:41:13.356Z,2.80
2019-04-26T14:44:33.041Z,2.80
2019-04-26T14:47:46.681Z,3.10
2019-04-26T14:50:39.853Z,2.80
2019-04-26T14:53:51.193Z,2.70
2019-04-26T14:56:52.482Z,3.20
2019-04-26T15:00:16.847Z,2.80
2019-04-26T15:03:39.983Z,2.60
2019-04-26T15:06:51.929Z,3.23
2019-04-26T15:10:20.902Z,2.60
2019-04-26T15:13:44.016Z,2.80
2019-04-26T15:16:55.656Z,2.77
2019-04-26T15:20:04.990Z,3.00
2019-04-26T15:23:10.091Z,2.70
2019-04-26T15:30:04.164Z,2.53
2019-04-26T15:33:18.975Z,2.80
2019-04-26T15:36:37.115Z,2.80
2019-04-26T15:43:46.771Z,2.90
2019-04-26T15:47:03.241Z,3.20
2019-04-26T15:53:36.080Z,2.80
2019-04-26T15:56:23.238Z,3.10
2019-04-26T15:59:25.271Z,3.50
2019-04-26T16:02:27.546Z,3.00
2019-04-26T16:05:29.641Z,3.10
2019-04-26T16:08:42.911Z,3.50
2019-04-26T16:11:24.360Z,3.17
2019-04-26T16:14:44.345Z,2.97
2019-04-26T16:17:47.675Z,3.03
2019-04-26T16:24:34.506Z,3.17
2019-04-26T16:27:49.428Z,2.90
2019-04-26T16:30:53.194Z,2.37
2019-04-26T16:34:18.093Z,2.80
2019-04-26T16:48:04.557Z,2.87
2019-04-26T16:51:09.465Z,3.40
2019-04-26T16:54:07.464Z,2.90
2019-04-26T16:57:24.380Z,3.23
2019-04-26T17:00:50.327Z,2.80
2019-04-26T17:03:30.686Z,2.93
2019-04-26T17:07:06.674Z,3.23
2019-04-26T17:10:16.577Z,3.13
2019-04-26T17:13:23.932Z,3.43
2019-04-26T17:16:29.641Z,3.40
2019-04-26T17:19:37.582Z,3.07
2019-04-26T17:23:08.630Z,3.10
2019-04-26T17:26:20.203Z,3.73
2019-04-26T17:29:49.880Z,3.60
2019-04-26T17:33:00.427Z,3.90
2019-04-26T17:35:56.341Z,3.50
2019-04-26T17:42:29.392Z,4.00
2019-04-26T17:45:44.009Z,4.37
2019-04-26T17:52:06.757Z,3.00
2019-04-26T17:55:11.868Z,3.73
2019-04-26T17:58:12.313Z,3.57
2019-04-26T18:01:41.949Z,3.20
2019-04-26T18:04:58.080Z,3.20
2019-04-26T18:08:36.035Z,3.60
2019-04-26T18:11:36.457Z,2.37
2019-04-26T18:14:35.077Z,2.80
2019-04-26T18:17:48.190Z,3.00
2019-04-26T18:24:43.535Z,2.80
2019-04-26T18:31:10.041Z,2.80
2019-04-26T18:34:55.518Z,3.43
2019-04-26T18:38:19.258Z,3.13
2019-04-26T18:45:28.135Z,2.60
2019-04-26T18:48:19.780Z,2.70
2019-04-26T18:55:53.544Z,2.10
2019-04-26T19:02:43.344Z,2.70
2019-04-26T19:05:36.216Z,2.80
2019-04-26T19:08:47.670Z,2.50
2019-04-26T19:11:50.584Z,2.87
2019-04-26T19:15:26.523Z,4.03
2019-04-26T19:18:51.795Z,4.10
2019-04-26T19:29:22.508Z,4.13
2019-04-26T19:32:27.715Z,3.70
2019-04-26T19:35:47.424Z,3.00
2019-04-26T19:39:08.951Z,2.47
2019-04-26T19:42:32.458Z,3.23
2019-04-26T19:46:22.723Z,3.00
2019-04-26T19:49:37.383Z,2.90
2019-04-26T19:53:17.720Z,3.13
2019-04-26T19:56:56.656Z,3.00
2019-04-26T20:00:15.488Z,2.67
2019-04-26T20:03:47.357Z,2.53
2019-04-26T20:07:16.090Z,2.60
2019-04-26T20:10:40.207Z,2.70
2019-04-26T20:13:55.207Z,2.67
2019-04-26T20:17:19.925Z,2.60
2019-04-26T20:20:35.862Z,2.33
2019-04-26T20:27:27.649Z,2.83
2019-04-26T20:30:48.802Z,2.47
2019-04-26T20:34:10.989Z,2.90
2019-04-26T20:37:52.022Z,3.60
2019-04-26T20:40:57.102Z,3.60
2019-04-26T20:44:07.434Z,2.80
2019-04-26T20:47:18.646Z,3.20
2019-04-26T20:50:17.852Z,3.47
2019-04-26T20:53:40.034Z,3.40
2019-04-26T20:56:59.573Z,3.20
2019-04-26T21:03:45.989Z,3.10
2019-04-26T21:07:23.233Z,3.20
2019-04-26T21:10:45.620Z,3.37
2019-04-26T21:14:07.675Z,3.50
2019-04-26T21:17:23.267Z,3.70
2019-04-26T21:20:42.373Z,2.87
2019-04-26T21:23:49.685Z,3.60
2019-04-26T21:26:54.605Z,3.53
2019-04-26T21:30:07.509Z,4.00
2019-04-26T21:33:19.528Z,3.73
2019-04-26T21:36:44.110Z,3.80
2019-04-26T21:39:58.518Z,3.70
2019-04-26T21:43:08.525Z,3.13
2019-04-26T21:49:52.761Z,3.27
2019-04-26T21:52:58.577Z,3.20
2019-04-26T21:59:40.975Z,3.60
2019-04-26T22:02:37.555Z,3.43
2019-04-26T22:05:54.843Z,3.50
2019-04-26T22:08:47.355Z,3.30
2019-04-26T22:11:33.120Z,3.37
2019-04-26T22:14:50.684Z,4.10
2019-04-26T22:18:04.645Z,3.70
2019-04-26T22:21:06.088Z,3.97
2019-04-26T22:24:16.000Z,4.00
2019-04-26T22:27:30.348Z,3.80
2019-04-26T22:30:29.532Z,4.20
2019-04-26T22:33:27.394Z,4.17
2019-04-26T22:36:13.177Z,4.07
2019-04-26T22:39:08.927Z,3.17
2019-04-26T22:42:02.817Z,4.53
2019-04-26T22:45:03.224Z,3.73
2019-04-26T22:48:23.166Z,4.23
2019-04-26T22:51:20.181Z,4.10
2019-04-26T22:53:57.589Z,4.00
2019-04-26T22:56:56.155Z,4.03
2019-04-26T22:59:47.706Z,3.90
2019-04-26T23:02:46.536Z,4.73
2019-04-26T23:05:30.679Z,5.83
2019-04-26T23:08:13.613Z,6.13
2019-04-26T23:11:02.490Z,5.00
2019-04-26T23:14:04.457Z,5.93
2019-04-26T23:17:08.044Z,5.87
2019-04-26T23:20:18.971Z,6.50
2019-04-26T23:23:05.237Z,6.03
2019-04-26T23:25:46.853Z,7.10
2019-04-26T23:28:36.829Z,7.70
2019-04-26T23:31:28.303Z,7.03
2019-04-26T23:34:14.289Z,9.60
2019-04-26T23:36:57.800Z,8.67
2019-04-26T23:39:49.379Z,8.10
2019-04-26T23:42:30.339Z,7.00
2019-04-26T23:45:28.894Z,6.77
2019-04-26T23:48:13.227Z,6.70
2019-04-26T23:50:59.905Z,6.50
2019-04-26T23:53:42.937Z,6.90
2019-04-26T23:56:24.665Z,6.43
2019-04-26T23:58:59.509Z,6.47
